Flight Track Log - Related Links

Times and Time Zones

All times are in EDT time to prevent confusion due to time zone crossing. See the SKW2604 flight status page for this flight to view local times or setup timezone preferences in your user account.

Time Position Orientation Groundspeed Altitude Reporting Facility
EDT Latitude Longitude Course Direction KTS MPH feet Rate Location/Type
Mon 12:18:56 PM 34.4278 -119.8297 116° Southeast 161 185 500  Level Los Angeles Center
Mon 12:19:26 PM 34.4183 -119.8067 116° Southeast 171 197 1,500 2,684 Climbing Los Angeles Center
Mon 12:20:12 PM 34.3892 -119.7711 135° Southeast 201 231 3,900 2,951 Climbing Los Angeles Center
Mon 12:20:27 PM 34.3775 -119.7494 123° Southeast 208 239 4,500 2,625 Climbing Los Angeles Center
Mon 12:21:00 PM 34.3575 -119.7119 123° Southeast 259 298 6,000 1,415 Climbing Los Angeles Center
Mon 12:22:13 PM 34.3147 -119.6239 120° Southeast 263 303 7,000 400 Climbing Los Angeles Center
Mon 12:23:30 PM 34.2636 -119.5686 138° Southeast 255 293 7,000  Level Los Angeles Center
Mon 12:24:14 PM 34.2122 -119.5006 132° Southeast 259 298 7,000  Level Los Angeles Center
Mon 12:24:33 PM 34.1900 -119.4839 148° Southeast 260 299 7,000  Level Los Angeles Center
Mon 12:25:15 PM 34.1592 -119.4369 128° Southeast 260 299 7,000  Level Los Angeles Center
Mon 12:25:35 PM 34.1425 -119.4183 137° Southeast 262 302 7,000  Level Los Angeles Center
Mon 12:26:37 PM 34.0908 -119.3544 134° Southeast 265 305 7,000  Level Los Angeles Center
Mon 12:27:16 PM 34.0550 -119.3067 132° Southeast 270 311 7,000  Level Los Angeles Center
Mon 12:27:39 PM 34.0453 -119.2864 120° Southeast 261 300 7,000  Level Los Angeles Center
Mon 12:28:41 PM 33.9886 -119.2228 137° Southeast 280 322 7,000 -331 Level Los Angeles Center
Mon 12:30:00 PM 33.9812 -119.0854 94° East  Level Estimated
Mon 12:30:22 PM 33.9333 -119.0833 94° East 270 311 6,100  Level Southern California TRACON
Mon 12:30:45 PM 33.9294 -119.0489 98° East 268 308 6,000 -71 Descending Los Angeles Center
Mon 12:31:47 PM 33.9261 -118.9714 93° East 228 262 6,000  Level Los Angeles Center
Mon 12:32:49 PM 33.9217 -118.8961 94° East 224 258 6,000  Level Los Angeles Center
Mon 12:34:28 PM 33.9167 -118.7667 93° East 230 265 6,000 -145 Level Southern California TRACON
Mon 12:34:53 PM 33.9175 -118.7375 88° East 223 257 5,700 -1,310 Descending Los Angeles Center
Mon 12:35:55 PM 33.9253 -118.6639 83° East 207 238 4,100 -1,210 Descending Los Angeles Center
Mon 12:36:57 PM 33.9317 -118.5994 83° East 196 226 3,200 -986 Descending Los Angeles Center
Mon 12:39:28 PM 33.9500 -118.4500 82° East 147 169 600 -1,033 Descending Southern California TRACON
Mon 12:41:00 PM 33.9425 -118.4081 90° East  Level Estimated
Mon 12:48:00 PM 33.9425 -118.4081 90° East  Level Estimated
Mon 12:49:00 PM 33.9425 -118.4081 90° East  Level Estimated

Login

Don't have an account? Register now (free) for customized features, flight alerts, and more!